sensor_id;sensor_type;location;lat;lon;timestamp;temperature;humidity
72883;DHT22;61017;37.812;-122.286;2022-07-09T00:00:22;22.70;75.30
72883;DHT22;61017;37.812;-122.286;2022-07-09T00:01:53;22.70;75.20
72883;DHT22;61017;37.812;-122.286;2022-07-09T00:03:25;22.70;75.40
72883;DHT22;61017;37.812;-122.286;2022-07-09T00:04:57;22.70;75.50
72883;DHT22;61017;37.812;-122.286;2022-07-09T00:06:29;22.70;75.60
72883;DHT22;61017;37.812;-122.286;2022-07-09T00:08:03;22.70;75.70
72883;DHT22;61017;37.812;-122.286;2022-07-09T00:09:35;22.70;75.40
72883;DHT22;61017;37.812;-122.286;2022-07-09T00:11:06;22.70;75.20
72883;DHT22;61017;37.812;-122.286;2022-07-09T00:12:38;22.70;75.20
72883;DHT22;61017;37.812;-122.286;2022-07-09T00:14:10;22.70;75.30
72883;DHT22;61017;37.812;-122.286;2022-07-09T00:15:42;22.70;75.20
72883;DHT22;61017;37.812;-122.286;2022-07-09T00:17:15;22.70;75.20
72883;DHT22;61017;37.812;-122.286;2022-07-09T00:18:46;22.70;75.20
72883;DHT22;61017;37.812;-122.286;2022-07-09T00:20:18;22.70;75.30
72883;DHT22;61017;37.812;-122.286;2022-07-09T00:21:50;22.80;75.60
72883;DHT22;61017;37.812;-122.286;2022-07-09T00:23:22;22.70;75.30
72883;DHT22;61017;37.812;-122.286;2022-07-09T00:24:54;22.70;75.20
72883;DHT22;61017;37.812;-122.286;2022-07-09T00:26:26;22.70;75.20
72883;DHT22;61017;37.812;-122.286;2022-07-09T00:27:58;22.80;75.40
72883;DHT22;61017;37.812;-122.286;2022-07-09T00:29:29;22.80;75.40
72883;DHT22;61017;37.812;-122.286;2022-07-09T00:31:01;22.80;75.50
72883;DHT22;61017;37.812;-122.286;2022-07-09T00:32:33;22.70;75.20
72883;DHT22;61017;37.812;-122.286;2022-07-09T00:34:05;22.70;75.20
72883;DHT22;61017;37.812;-122.286;2022-07-09T00:35:37;22.70;75.20
72883;DHT22;61017;37.812;-122.286;2022-07-09T00:37:09;22.70;75.30
72883;DHT22;61017;37.812;-122.286;2022-07-09T00:38:40;22.70;75.20
72883;DHT22;61017;37.812;-122.286;2022-07-09T00:40:12;22.80;75.00
72883;DHT22;61017;37.812;-122.286;2022-07-09T00:41:44;22.70;75.00
72883;DHT22;61017;37.812;-122.286;2022-07-09T00:43:20;22.80;75.00
72883;DHT22;61017;37.812;-122.286;2022-07-09T00:44:52;22.70;74.80
72883;DHT22;61017;37.812;-122.286;2022-07-09T00:46:24;22.80;75.00
72883;DHT22;61017;37.812;-122.286;2022-07-09T00:47:56;22.70;74.70
72883;DHT22;61017;37.812;-122.286;2022-07-09T00:49:29;22.70;74.40
72883;DHT22;61017;37.812;-122.286;2022-07-09T00:51:01;22.70;74.50
72883;DHT22;61017;37.812;-122.286;2022-07-09T00:52:35;22.70;74.50
72883;DHT22;61017;37.812;-122.286;2022-07-09T00:54:08;22.70;74.40
72883;DHT22;61017;37.812;-122.286;2022-07-09T00:55:41;22.70;75.40
72883;DHT22;61017;37.812;-122.286;2022-07-09T00:57:15;22.70;74.50
72883;DHT22;61017;37.812;-122.286;2022-07-09T00:58:48;22.70;74.60
72883;DHT22;61017;37.812;-122.286;2022-07-09T01:00:21;22.70;74.70
72883;DHT22;61017;37.812;-122.286;2022-07-09T01:01:54;22.70;74.50
72883;DHT22;61017;37.812;-122.286;2022-07-09T01:03:26;22.70;74.30
72883;DHT22;61017;37.812;-122.286;2022-07-09T01:04:58;22.70;74.20
72883;DHT22;61017;37.812;-122.286;2022-07-09T01:06:30;22.80;74.20
72883;DHT22;61017;37.812;-122.286;2022-07-09T01:08:06;22.80;74.10
72883;DHT22;61017;37.812;-122.286;2022-07-09T01:09:39;22.80;74.30
72883;DHT22;61017;37.812;-122.286;2022-07-09T01:11:11;22.80;74.40
72883;DHT22;61017;37.812;-122.286;2022-07-09T01:12:44;22.80;74.40
72883;DHT22;61017;37.812;-122.286;2022-07-09T01:14:16;22.80;74.20
72883;DHT22;61017;37.812;-122.286;2022-07-09T01:15:48;22.80;74.20
72883;DHT22;61017;37.812;-122.286;2022-07-09T01:17:20;22.80;74.20
72883;DHT22;61017;37.812;-122.286;2022-07-09T01:18:52;22.80;74.20
72883;DHT22;61017;37.812;-122.286;2022-07-09T01:20:30;22.90;74.40
72883;DHT22;61017;37.812;-122.286;2022-07-09T01:22:03;22.90;74.40
72883;DHT22;61017;37.812;-122.286;2022-07-09T01:23:35;22.80;74.30
72883;DHT22;61017;37.812;-122.286;2022-07-09T01:25:08;22.90;74.50
72883;DHT22;61017;37.812;-122.286;2022-07-09T01:26:40;22.80;74.20
72883;DHT22;61017;37.812;-122.286;2022-07-09T01:28:12;22.90;74.50
72883;DHT22;61017;37.812;-122.286;2022-07-09T01:29:44;22.90;74.30
72883;DHT22;61017;37.812;-122.286;2022-07-09T01:31:20;22.90;74.40
72883;DHT22;61017;37.812;-122.286;2022-07-09T01:32:53;22.90;74.30
72883;DHT22;61017;37.812;-122.286;2022-07-09T01:34:25;22.90;74.10
72883;DHT22;61017;37.812;-122.286;2022-07-09T01:35:57;22.90;73.90
72883;DHT22;61017;37.812;-122.286;2022-07-09T01:37:29;22.90;74.00
72883;DHT22;61017;37.812;-122.286;2022-07-09T01:39:00;22.90;74.10
72883;DHT22;61017;37.812;-122.286;2022-07-09T01:40:33;22.90;74.10
72883;DHT22;61017;37.812;-122.286;2022-07-09T01:42:04;22.90;74.20
72883;DHT22;61017;37.812;-122.286;2022-07-09T01:43:36;22.90;74.10
72883;DHT22;61017;37.812;-122.286;2022-07-09T01:45:09;22.90;74.10
72883;DHT22;61017;37.812;-122.286;2022-07-09T01:46:40;22.90;74.00
72883;DHT22;61017;37.812;-122.286;2022-07-09T01:48:12;22.90;74.20
72883;DHT22;61017;37.812;-122.286;2022-07-09T01:49:44;22.90;74.20
72883;DHT22;61017;37.812;-122.286;2022-07-09T01:51:16;22.90;74.30
72883;DHT22;61017;37.812;-122.286;2022-07-09T01:52:48;22.90;74.30
72883;DHT22;61017;37.812;-122.286;2022-07-09T01:54:21;22.90;74.30
72883;DHT22;61017;37.812;-122.286;2022-07-09T01:55:53;22.90;74.30
72883;DHT22;61017;37.812;-122.286;2022-07-09T01:57:26;22.90;74.30
72883;DHT22;61017;37.812;-122.286;2022-07-09T01:58:57;22.90;74.30
72883;DHT22;61017;37.812;-122.286;2022-07-09T02:00:29;23.00;74.20
72883;DHT22;61017;37.812;-122.286;2022-07-09T02:02:01;22.90;74.30
72883;DHT22;61017;37.812;-122.286;2022-07-09T02:03:33;23.00;74.20
72883;DHT22;61017;37.812;-122.286;2022-07-09T02:05:06;22.90;74.20
72883;DHT22;61017;37.812;-122.286;2022-07-09T02:06:38;23.00;74.40
72883;DHT22;61017;37.812;-122.286;2022-07-09T02:08:09;22.90;74.10
72883;DHT22;61017;37.812;-122.286;2022-07-09T02:09:41;22.90;74.10
72883;DHT22;61017;37.812;-122.286;2022-07-09T02:11:13;22.90;74.10
72883;DHT22;61017;37.812;-122.286;2022-07-09T02:12:45;23.00;74.40
72883;DHT22;61017;37.812;-122.286;2022-07-09T02:14:17;23.00;74.30
72883;DHT22;61017;37.812;-122.286;2022-07-09T02:15:49;23.00;74.10
72883;DHT22;61017;37.812;-122.286;2022-07-09T02:17:21;23.00;74.20
72883;DHT22;61017;37.812;-122.286;2022-07-09T02:18:53;23.00;74.30
72883;DHT22;61017;37.812;-122.286;2022-07-09T02:20:25;23.00;74.30
72883;DHT22;61017;37.812;-122.286;2022-07-09T02:21:57;23.00;74.20
72883;DHT22;61017;37.812;-122.286;2022-07-09T02:23:29;23.00;74.20
72883;DHT22;61017;37.812;-122.286;2022-07-09T02:25:01;23.00;74.40
72883;DHT22;61017;37.812;-122.286;2022-07-09T02:26:33;23.00;74.30
72883;DHT22;61017;37.812;-122.286;2022-07-09T02:28:05;22.90;74.20
72883;DHT22;61017;37.812;-122.286;2022-07-09T02:29:37;22.90;74.00
72883;DHT22;61017;37.812;-122.286;2022-07-09T02:31:08;22.90;74.10
72883;DHT22;61017;37.812;-122.286;2022-07-09T02:32:40;22.90;74.10
72883;DHT22;61017;37.812;-122.286;2022-07-09T02:34:12;22.90;74.10
72883;DHT22;61017;37.812;-122.286;2022-07-09T02:35:44;22.90;74.10
72883;DHT22;61017;37.812;-122.286;2022-07-09T02:37:16;22.90;74.30
72883;DHT22;61017;37.812;-122.286;2022-07-09T02:38:48;22.90;74.20
72883;DHT22;61017;37.812;-122.286;2022-07-09T02:40:20;22.90;74.10
72883;DHT22;61017;37.812;-122.286;2022-07-09T02:41:52;22.90;74.10
72883;DHT22;61017;37.812;-122.286;2022-07-09T02:43:24;22.90;74.10
72883;DHT22;61017;37.812;-122.286;2022-07-09T02:44:55;22.90;74.10
72883;DHT22;61017;37.812;-122.286;2022-07-09T02:46:27;22.90;74.20
72883;DHT22;61017;37.812;-122.286;2022-07-09T02:47:59;22.90;74.30
72883;DHT22;61017;37.812;-122.286;2022-07-09T02:49:31;22.90;74.00
72883;DHT22;61017;37.812;-122.286;2022-07-09T02:51:03;22.90;74.00
72883;DHT22;61017;37.812;-122.286;2022-07-09T02:52:35;22.80;73.90
72883;DHT22;61017;37.812;-122.286;2022-07-09T02:54:07;22.80;74.00
72883;DHT22;61017;37.812;-122.286;2022-07-09T02:55:39;22.80;73.90
72883;DHT22;61017;37.812;-122.286;2022-07-09T02:57:11;22.80;73.90
72883;DHT22;61017;37.812;-122.286;2022-07-09T02:58:44;22.80;73.90
72883;DHT22;61017;37.812;-122.286;2022-07-09T03:00:16;22.80;74.00
72883;DHT22;61017;37.812;-122.286;2022-07-09T03:01:48;22.80;73.90
72883;DHT22;61017;37.812;-122.286;2022-07-09T03:03:20;22.80;74.00
72883;DHT22;61017;37.812;-122.286;2022-07-09T03:04:54;22.80;74.10
72883;DHT22;61017;37.812;-122.286;2022-07-09T03:06:26;22.80;74.00
72883;DHT22;61017;37.812;-122.286;2022-07-09T03:07:58;22.80;73.90
72883;DHT22;61017;37.812;-122.286;2022-07-09T03:09:30;22.70;73.90
72883;DHT22;61017;37.812;-122.286;2022-07-09T03:11:02;22.70;73.90
72883;DHT22;61017;37.812;-122.286;2022-07-09T03:12:34;22.70;74.00
72883;DHT22;61017;37.812;-122.286;2022-07-09T03:14:06;22.70;74.00
72883;DHT22;61017;37.812;-122.286;2022-07-09T03:15:37;22.70;74.00
72883;DHT22;61017;37.812;-122.286;2022-07-09T03:17:09;22.70;74.10
72883;DHT22;61017;37.812;-122.286;2022-07-09T03:18:41;22.70;74.10
72883;DHT22;61017;37.812;-122.286;2022-07-09T03:20:13;22.70;74.00
72883;DHT22;61017;37.812;-122.286;2022-07-09T03:21:45;22.70;74.10
72883;DHT22;61017;37.812;-122.286;2022-07-09T03:23:17;22.60;74.00
72883;DHT22;61017;37.812;-122.286;2022-07-09T03:24:49;22.70;73.90
72883;DHT22;61017;37.812;-122.286;2022-07-09T03:26:21;22.60;74.00
72883;DHT22;61017;37.812;-122.286;2022-07-09T03:27:53;22.60;73.90
72883;DHT22;61017;37.812;-122.286;2022-07-09T03:29:25;22.60;73.90
72883;DHT22;61017;37.812;-122.286;2022-07-09T03:30:57;22.60;74.00
72883;DHT22;61017;37.812;-122.286;2022-07-09T03:32:30;22.60;74.00
72883;DHT22;61017;37.812;-122.286;2022-07-09T03:34:02;22.60;74.10
72883;DHT22;61017;37.812;-122.286;2022-07-09T03:35:34;22.60;74.30
72883;DHT22;61017;37.812;-122.286;2022-07-09T03:37:06;22.60;74.30
72883;DHT22;61017;37.812;-122.286;2022-07-09T03:38:38;22.60;74.30
72883;DHT22;61017;37.812;-122.286;2022-07-09T03:40:10;22.60;74.20
72883;DHT22;61017;37.812;-122.286;2022-07-09T03:41:42;22.60;74.20
72883;DHT22;61017;37.812;-122.286;2022-07-09T03:43:14;22.60;74.30
72883;DHT22;61017;37.812;-122.286;2022-07-09T03:44:46;22.60;74.10
72883;DHT22;61017;37.812;-122.286;2022-07-09T03:46:18;22.60;74.30
72883;DHT22;61017;37.812;-122.286;2022-07-09T03:47:49;22.60;75.10
72883;DHT22;61017;37.812;-122.286;2022-07-09T03:49:21;22.50;74.20
72883;DHT22;61017;37.812;-122.286;2022-07-09T03:50:53;22.50;74.20
72883;DHT22;61017;37.812;-122.286;2022-07-09T03:52:25;22.50;74.30
72883;DHT22;61017;37.812;-122.286;2022-07-09T03:53:57;22.50;74.40
72883;DHT22;61017;37.812;-122.286;2022-07-09T03:55:29;22.50;74.50
72883;DHT22;61017;37.812;-122.286;2022-07-09T03:57:00;22.40;74.40
72883;DHT22;61017;37.812;-122.286;2022-07-09T03:58:32;22.40;74.60
72883;DHT22;61017;37.812;-122.286;2022-07-09T04:00:05;22.40;74.60
72883;DHT22;61017;37.812;-122.286;2022-07-09T04:01:37;22.40;74.90
72883;DHT22;61017;37.812;-122.286;2022-07-09T04:03:09;22.40;74.80
72883;DHT22;61017;37.812;-122.286;2022-07-09T04:04:41;22.40;74.80
72883;DHT22;61017;37.812;-122.286;2022-07-09T04:06:15;22.40;74.90
72883;DHT22;61017;37.812;-122.286;2022-07-09T04:07:47;22.40;74.90
72883;DHT22;61017;37.812;-122.286;2022-07-09T04:09:19;22.40;75.20
72883;DHT22;61017;37.812;-122.286;2022-07-09T04:10:51;22.40;75.20
72883;DHT22;61017;37.812;-122.286;2022-07-09T04:12:23;22.30;75.20
72883;DHT22;61017;37.812;-122.286;2022-07-09T04:13:55;22.30;75.50
72883;DHT22;61017;37.812;-122.286;2022-07-09T04:15:26;22.30;75.50
72883;DHT22;61017;37.812;-122.286;2022-07-09T04:16:58;22.30;75.80
72883;DHT22;61017;37.812;-122.286;2022-07-09T04:18:30;22.30;75.80
72883;DHT22;61017;37.812;-122.286;2022-07-09T04:20:02;22.20;76.50
72883;DHT22;61017;37.812;-122.286;2022-07-09T04:21:34;22.20;75.70
72883;DHT22;61017;37.812;-122.286;2022-07-09T04:23:06;22.20;75.80
72883;DHT22;61017;37.812;-122.286;2022-07-09T04:24:38;22.20;75.70
72883;DHT22;61017;37.812;-122.286;2022-07-09T04:26:10;22.20;75.60
72883;DHT22;61017;37.812;-122.286;2022-07-09T04:27:42;22.20;75.60
72883;DHT22;61017;37.812;-122.286;2022-07-09T04:29:14;22.20;75.60
72883;DHT22;61017;37.812;-122.286;2022-07-09T04:30:46;22.20;75.60
72883;DHT22;61017;37.812;-122.286;2022-07-09T04:32:18;22.20;75.40
72883;DHT22;61017;37.812;-122.286;2022-07-09T04:33:50;22.20;75.40
72883;DHT22;61017;37.812;-122.286;2022-07-09T04:35:22;22.20;75.40
72883;DHT22;61017;37.812;-122.286;2022-07-09T04:36:54;22.10;75.50
72883;DHT22;61017;37.812;-122.286;2022-07-09T04:38:26;22.10;75.50
72883;DHT22;61017;37.812;-122.286;2022-07-09T04:39:58;22.10;75.60
72883;DHT22;61017;37.812;-122.286;2022-07-09T04:41:29;22.10;75.50
72883;DHT22;61017;37.812;-122.286;2022-07-09T04:43:01;22.10;75.60
72883;DHT22;61017;37.812;-122.286;2022-07-09T04:44:33;22.10;75.60
72883;DHT22;61017;37.812;-122.286;2022-07-09T04:46:05;22.10;75.70
72883;DHT22;61017;37.812;-122.286;2022-07-09T04:47:37;22.10;75.70
72883;DHT22;61017;37.812;-122.286;2022-07-09T04:49:09;22.10;75.70
72883;DHT22;61017;37.812;-122.286;2022-07-09T04:50:41;22.00;75.70
72883;DHT22;61017;37.812;-122.286;2022-07-09T04:52:13;22.00;75.70
72883;DHT22;61017;37.812;-122.286;2022-07-09T04:53:48;22.00;75.80
72883;DHT22;61017;37.812;-122.286;2022-07-09T04:55:20;22.00;75.90
72883;DHT22;61017;37.812;-122.286;2022-07-09T04:56:53;22.00;75.90
72883;DHT22;61017;37.812;-122.286;2022-07-09T04:58:25;22.00;75.90
72883;DHT22;61017;37.812;-122.286;2022-07-09T05:00:01;21.90;75.90
72883;DHT22;61017;37.812;-122.286;2022-07-09T05:01:33;21.90;75.90
72883;DHT22;61017;37.812;-122.286;2022-07-09T05:03:04;21.90;76.00
72883;DHT22;61017;37.812;-122.286;2022-07-09T05:04:36;21.90;76.00
72883;DHT22;61017;37.812;-122.286;2022-07-09T05:06:08;21.90;76.10
72883;DHT22;61017;37.812;-122.286;2022-07-09T05:07:40;21.90;76.10
72883;DHT22;61017;37.812;-122.286;2022-07-09T05:09:15;21.90;76.30
72883;DHT22;61017;37.812;-122.286;2022-07-09T05:10:46;21.90;76.40
72883;DHT22;61017;37.812;-122.286;2022-07-09T05:12:18;21.90;76.40
72883;DHT22;61017;37.812;-122.286;2022-07-09T05:13:50;21.80;76.30
72883;DHT22;61017;37.812;-122.286;2022-07-09T05:15:22;21.80;76.30
72883;DHT22;61017;37.812;-122.286;2022-07-09T05:16:54;21.80;76.30
72883;DHT22;61017;37.812;-122.286;2022-07-09T05:18:26;21.80;76.40
72883;DHT22;61017;37.812;-122.286;2022-07-09T05:20:01;21.80;76.50
72883;DHT22;61017;37.812;-122.286;2022-07-09T05:21:34;21.80;76.40
72883;DHT22;61017;37.812;-122.286;2022-07-09T05:23:07;21.80;76.50
72883;DHT22;61017;37.812;-122.286;2022-07-09T05:24:39;21.80;76.50
72883;DHT22;61017;37.812;-122.286;2022-07-09T05:26:11;21.80;76.50
72883;DHT22;61017;37.812;-122.286;2022-07-09T05:27:45;21.80;76.50
72883;DHT22;61017;37.812;-122.286;2022-07-09T05:29:17;21.80;76.50
72883;DHT22;61017;37.812;-122.286;2022-07-09T05:30:49;21.70;76.40
72883;DHT22;61017;37.812;-122.286;2022-07-09T05:32:21;21.70;76.50
72883;DHT22;61017;37.812;-122.286;2022-07-09T05:33:52;21.70;76.50
72883;DHT22;61017;37.812;-122.286;2022-07-09T05:35:24;21.70;76.60
72883;DHT22;61017;37.812;-122.286;2022-07-09T05:36:56;21.70;76.50
72883;DHT22;61017;37.812;-122.286;2022-07-09T05:38:28;21.70;76.60
72883;DHT22;61017;37.812;-122.286;2022-07-09T05:40:00;21.70;76.60
72883;DHT22;61017;37.812;-122.286;2022-07-09T05:41:36;21.70;76.70
72883;DHT22;61017;37.812;-122.286;2022-07-09T05:43:08;21.70;76.60
72883;DHT22;61017;37.812;-122.286;2022-07-09T05:44:40;21.60;76.60
72883;DHT22;61017;37.812;-122.286;2022-07-09T05:46:12;21.60;77.40
72883;DHT22;61017;37.812;-122.286;2022-07-09T05:47:44;21.60;76.70
72883;DHT22;61017;37.812;-122.286;2022-07-09T05:49:16;21.60;76.70
72883;DHT22;61017;37.812;-122.286;2022-07-09T05:50:47;21.60;76.70
72883;DHT22;61017;37.812;-122.286;2022-07-09T05:52:19;21.60;76.80
72883;DHT22;61017;37.812;-122.286;2022-07-09T05:53:51;21.60;76.70
72883;DHT22;61017;37.812;-122.286;2022-07-09T05:55:23;21.60;76.60
72883;DHT22;61017;37.812;-122.286;2022-07-09T05:56:55;21.60;76.70
72883;DHT22;61017;37.812;-122.286;2022-07-09T05:58:27;21.60;76.80
72883;DHT22;61017;37.812;-122.286;2022-07-09T05:59:58;21.60;76.80
72883;DHT22;61017;37.812;-122.286;2022-07-09T06:01:30;21.60;76.90
72883;DHT22;61017;37.812;-122.286;2022-07-09T06:03:02;21.60;76.80
72883;DHT22;61017;37.812;-122.286;2022-07-09T06:04:34;21.60;77.00
72883;DHT22;61017;37.812;-122.286;2022-07-09T06:06:06;21.60;76.90
72883;DHT22;61017;37.812;-122.286;2022-07-09T06:07:38;21.60;76.90
72883;DHT22;61017;37.812;-122.286;2022-07-09T06:09:16;21.50;76.80
72883;DHT22;61017;37.812;-122.286;2022-07-09T06:10:48;21.50;76.90
72883;DHT22;61017;37.812;-122.286;2022-07-09T06:12:20;21.50;76.90
72883;DHT22;61017;37.812;-122.286;2022-07-09T06:13:52;21.50;76.90
72883;DHT22;61017;37.812;-122.286;2022-07-09T06:15:24;21.50;76.90
72883;DHT22;61017;37.812;-122.286;2022-07-09T06:16:55;21.50;76.80
72883;DHT22;61017;37.812;-122.286;2022-07-09T06:18:27;21.50;76.90
72883;DHT22;61017;37.812;-122.286;2022-07-09T06:20:00;21.50;76.90
72883;DHT22;61017;37.812;-122.286;2022-07-09T06:21:32;21.50;76.90
72883;DHT22;61017;37.812;-122.286;2022-07-09T06:23:03;21.40;77.60
72883;DHT22;61017;37.812;-122.286;2022-07-09T06:24:35;21.40;76.80
72883;DHT22;61017;37.812;-122.286;2022-07-09T06:26:07;21.40;76.80
72883;DHT22;61017;37.812;-122.286;2022-07-09T06:27:39;21.40;76.90
72883;DHT22;61017;37.812;-122.286;2022-07-09T06:29:14;21.40;77.00
72883;DHT22;61017;37.812;-122.286;2022-07-09T06:30:45;21.40;76.90
72883;DHT22;61017;37.812;-122.286;2022-07-09T06:32:17;21.40;77.00
72883;DHT22;61017;37.812;-122.286;2022-07-09T06:33:49;21.30;77.00
72883;DHT22;61017;37.812;-122.286;2022-07-09T06:35:21;21.30;77.00
72883;DHT22;61017;37.812;-122.286;2022-07-09T06:36:53;21.30;77.10
72883;DHT22;61017;37.812;-122.286;2022-07-09T06:38:28;21.30;77.10
72883;DHT22;61017;37.812;-122.286;2022-07-09T06:40:00;21.30;77.20
72883;DHT22;61017;37.812;-122.286;2022-07-09T06:41:33;21.30;77.10
72883;DHT22;61017;37.812;-122.286;2022-07-09T06:43:05;21.30;77.10
72883;DHT22;61017;37.812;-122.286;2022-07-09T06:44:37;21.20;77.10
72883;DHT22;61017;37.812;-122.286;2022-07-09T06:46:09;21.20;77.10
72883;DHT22;61017;37.812;-122.286;2022-07-09T06:47:41;21.20;77.10
72883;DHT22;61017;37.812;-122.286;2022-07-09T06:49:13;21.20;77.10
72883;DHT22;61017;37.812;-122.286;2022-07-09T06:50:44;21.20;77.20
72883;DHT22;61017;37.812;-122.286;2022-07-09T06:52:16;21.20;77.30
72883;DHT22;61017;37.812;-122.286;2022-07-09T06:53:48;21.20;77.30
72883;DHT22;61017;37.812;-122.286;2022-07-09T06:55:20;21.10;77.20
72883;DHT22;61017;37.812;-122.286;2022-07-09T06:56:52;21.10;77.30
72883;DHT22;61017;37.812;-122.286;2022-07-09T06:58:24;21.10;77.40
72883;DHT22;61017;37.812;-122.286;2022-07-09T06:59:56;21.10;77.30
72883;DHT22;61017;37.812;-122.286;2022-07-09T07:01:27;21.10;77.40
72883;DHT22;61017;37.812;-122.286;2022-07-09T07:02:59;21.10;77.50
72883;DHT22;61017;37.812;-122.286;2022-07-09T07:04:31;21.10;77.50
72883;DHT22;61017;37.812;-122.286;2022-07-09T07:06:03;21.10;77.60
72883;DHT22;61017;37.812;-122.286;2022-07-09T07:07:35;21.10;77.60
72883;DHT22;61017;37.812;-122.286;2022-07-09T07:09:07;21.00;77.50
72883;DHT22;61017;37.812;-122.286;2022-07-09T07:10:39;21.10;77.70
72883;DHT22;61017;37.812;-122.286;2022-07-09T07:12:11;21.00;77.60
72883;DHT22;61017;37.812;-122.286;2022-07-09T07:13:43;21.00;77.60
72883;DHT22;61017;37.812;-122.286;2022-07-09T07:15:15;21.00;77.60
72883;DHT22;61017;37.812;-122.286;2022-07-09T07:16:47;21.00;77.70
72883;DHT22;61017;37.812;-122.286;2022-07-09T07:18:18;21.00;77.60
72883;DHT22;61017;37.812;-122.286;2022-07-09T07:19:50;21.00;77.80
72883;DHT22;61017;37.812;-122.286;2022-07-09T07:21:22;21.00;78.00
72883;DHT22;61017;37.812;-122.286;2022-07-09T07:22:54;21.00;77.90
72883;DHT22;61017;37.812;-122.286;2022-07-09T07:24:26;21.00;78.00
72883;DHT22;61017;37.812;-122.286;2022-07-09T07:26:00;20.90;78.00
72883;DHT22;61017;37.812;-122.286;2022-07-09T07:27:33;20.90;78.10
72883;DHT22;61017;37.812;-122.286;2022-07-09T07:29:04;20.90;78.10
72883;DHT22;61017;37.812;-122.286;2022-07-09T07:30:36;20.90;78.20
72883;DHT22;61017;37.812;-122.286;2022-07-09T07:32:08;20.90;78.20
72883;DHT22;61017;37.812;-122.286;2022-07-09T07:33:40;20.90;78.30
72883;DHT22;61017;37.812;-122.286;2022-07-09T07:35:12;20.90;78.20
72883;DHT22;61017;37.812;-122.286;2022-07-09T07:36:44;20.90;78.20
72883;DHT22;61017;37.812;-122.286;2022-07-09T07:38:16;20.90;78.20
72883;DHT22;61017;37.812;-122.286;2022-07-09T07:39:48;20.90;78.30
72883;DHT22;61017;37.812;-122.286;2022-07-09T07:41:20;20.90;78.40
72883;DHT22;61017;37.812;-122.286;2022-07-09T07:42:52;20.90;78.30
72883;DHT22;61017;37.812;-122.286;2022-07-09T07:44:24;20.90;78.30
72883;DHT22;61017;37.812;-122.286;2022-07-09T07:45:56;20.90;78.40
72883;DHT22;61017;37.812;-122.286;2022-07-09T07:47:28;20.90;78.40
72883;DHT22;61017;37.812;-122.286;2022-07-09T07:49:00;20.90;78.60
72883;DHT22;61017;37.812;-122.286;2022-07-09T07:50:31;20.90;78.60
72883;DHT22;61017;37.812;-122.286;2022-07-09T07:52:05;20.90;78.60
72883;DHT22;61017;37.812;-122.286;2022-07-09T07:53:37;20.90;78.60
72883;DHT22;61017;37.812;-122.286;2022-07-09T07:55:09;20.80;78.50
72883;DHT22;61017;37.812;-122.286;2022-07-09T07:56:41;20.90;78.60
72883;DHT22;61017;37.812;-122.286;2022-07-09T07:58:13;20.80;78.80
72883;DHT22;61017;37.812;-122.286;2022-07-09T07:59:45;20.80;78.70
72883;DHT22;61017;37.812;-122.286;2022-07-09T08:01:18;20.80;78.80
72883;DHT22;61017;37.812;-122.286;2022-07-09T08:02:50;20.80;78.60
72883;DHT22;61017;37.812;-122.286;2022-07-09T08:04:22;20.80;78.70
72883;DHT22;61017;37.812;-122.286;2022-07-09T08:05:53;20.80;78.70
72883;DHT22;61017;37.812;-122.286;2022-07-09T08:07:25;20.80;78.90
72883;DHT22;61017;37.812;-122.286;2022-07-09T08:08:58;20.80;78.80
72883;DHT22;61017;37.812;-122.286;2022-07-09T08:10:30;20.80;78.90
72883;DHT22;61017;37.812;-122.286;2022-07-09T08:12:01;20.80;78.90
72883;DHT22;61017;37.812;-122.286;2022-07-09T08:13:33;20.80;79.00
72883;DHT22;61017;37.812;-122.286;2022-07-09T08:15:06;20.70;79.00
72883;DHT22;61017;37.812;-122.286;2022-07-09T08:16:38;20.70;79.10
72883;DHT22;61017;37.812;-122.286;2022-07-09T08:18:11;20.70;79.20
72883;DHT22;61017;37.812;-122.286;2022-07-09T08:19:45;20.70;79.10
72883;DHT22;61017;37.812;-122.286;2022-07-09T08:21:17;20.70;79.30
72883;DHT22;61017;37.812;-122.286;2022-07-09T08:22:49;20.70;79.40
72883;DHT22;61017;37.812;-122.286;2022-07-09T08:24:21;20.70;79.20
72883;DHT22;61017;37.812;-122.286;2022-07-09T08:25:53;20.70;79.40
72883;DHT22;61017;37.812;-122.286;2022-07-09T08:27:25;20.70;79.30
72883;DHT22;61017;37.812;-122.286;2022-07-09T08:28:57;20.70;79.30
72883;DHT22;61017;37.812;-122.286;2022-07-09T08:30:29;20.70;79.20
72883;DHT22;61017;37.812;-122.286;2022-07-09T08:32:01;20.70;79.30
72883;DHT22;61017;37.812;-122.286;2022-07-09T08:33:33;20.80;79.40
72883;DHT22;61017;37.812;-122.286;2022-07-09T08:35:06;20.80;79.40
72883;DHT22;61017;37.812;-122.286;2022-07-09T08:36:38;20.80;79.10
72883;DHT22;61017;37.812;-122.286;2022-07-09T08:38:10;20.70;79.10
72883;DHT22;61017;37.812;-122.286;2022-07-09T08:39:42;20.70;79.20
72883;DHT22;61017;37.812;-122.286;2022-07-09T08:41:13;20.70;79.30
72883;DHT22;61017;37.812;-122.286;2022-07-09T08:42:50;20.70;79.30
72883;DHT22;61017;37.812;-122.286;2022-07-09T08:44:28;20.70;79.20
72883;DHT22;61017;37.812;-122.286;2022-07-09T08:46:00;20.70;79.10
72883;DHT22;61017;37.812;-122.286;2022-07-09T08:47:32;20.70;79.10
72883;DHT22;61017;37.812;-122.286;2022-07-09T08:49:07;20.70;79.20
72883;DHT22;61017;37.812;-122.286;2022-07-09T08:50:40;20.70;79.10
72883;DHT22;61017;37.812;-122.286;2022-07-09T08:52:13;20.70;79.10
72883;DHT22;61017;37.812;-122.286;2022-07-09T08:53:45;20.70;79.20
72883;DHT22;61017;37.812;-122.286;2022-07-09T08:55:17;20.60;79.10
72883;DHT22;61017;37.812;-122.286;2022-07-09T08:56:52;20.60;79.20
72883;DHT22;61017;37.812;-122.286;2022-07-09T08:58:24;20.60;79.20
72883;DHT22;61017;37.812;-122.286;2022-07-09T08:59:56;20.60;79.30
72883;DHT22;61017;37.812;-122.286;2022-07-09T09:01:28;20.60;79.20
72883;DHT22;61017;37.812;-122.286;2022-07-09T09:03:00;20.60;79.30
72883;DHT22;61017;37.812;-122.286;2022-07-09T09:04:32;20.60;79.20
72883;DHT22;61017;37.812;-122.286;2022-07-09T09:06:07;20.60;79.20
72883;DHT22;61017;37.812;-122.286;2022-07-09T09:07:40;20.60;79.30
